Startpagina
METAR-TAF:

METAR-TAF

Vliegvelden :

Bangalore, India

breedte: 12-57-00N, lengte: 077-40-06E, hoogte: 888 m

Actueel weer

Dit bericht is 42 minuten geleden gemaakt, om 10:30 UTC
Wind 11 kt uit het westzuidwesten
Temperatuur 26°C
Vochtigheid 70%
Druk 1009 hPa
Zicht 10 km of meer
Verspreide wolken op 1200 ft
Gebroken wolken op 8000 ft

METAR: VOBG 191030Z 25011KT 9999 SCT012 BKN080 26/20 Q1009

Tijdstip: 16:42 (11:12 UTC)

Verwachting

Dit bericht is 3 uur en het 12 minuten geleden gemaakt, om 08:00 UTC
Verwachting geldig van 19 om 09 UTC tot 19 om 18 UTC
Wind 15 kt uit het westen
Zicht: 6000 m
Verspreide wolken op 1200 ft
Gebroken wolken op 8000 ft
Tijdelijke
van 19 om 09 UTC tot 19 om 12 UTC
Zicht: 4000 m
Verspreide wolken op 600 ft
Verspreide wolken op 1200 ft
Gebroken wolken op 8000 ft
regen, motregen

TAF: VOBG 190800Z 1909/1918 27015KT 6000 SCT012 BKN080 TEMPO 1909/1912 4000 RA DZ SCT006 SCT012 BKN080

Waarnemingen en weersverwachtingen van meer dan 4000 vliegvelden (METAR en TAF).

De beschikbare stations zijn de gele en rode punten op de kaart.

Ga met uw muis naar het station om de naam te zien.

Klik dan om waarnemingen en weersverwachtingen te zien.

kaart wijzigen: klik op de groene knoppen met een zwart kruis om in te zoomen, op de groene knop met een streepje om uit te zoomen of op de groene pijlen voor aangrenzende kaarten.


METAR-TAF: